Time;durP1;ratioP1;P1;durP2;ratioP2;P2;SDS_P1;SDS_P2;PMS_P1;PMS_P2;Temp;Humidity;BMP_temperature;BMP_pressure;BME280_temperature;BME280_humidity;BME280_pressure;Samples;Min_cycle;Max_cycle;Signal;HPM_P1;HPM_P2
2022/02/08 00:02:01;;;;;;;5.80;2.80;;;;;;;;;;5030829;28;20658;-48
2022/02/08 00:04:28;;;;;;;6.93;2.55;;;;;;;;;;5030288;28;20171;-48
2022/02/08 00:06:55;;;;;;;10.98;4.15;;;;;;;;;;5030352;28;20192;-49
2022/02/08 00:09:22;;;;;;;12.32;2.88;;;;;;;;;;5030015;28;20262;-48
2022/02/08 00:11:48;;;;;;;4.38;2.20;;;;;;;;;;5031913;28;20643;-48
2022/02/08 00:14:14;;;;;;;5.67;2.03;;;;;;;;;;5033165;28;20187;-48
2022/02/08 00:16:40;;;;;;;5.67;3.10;;;;;;;;;;5034118;28;20509;-47
2022/02/08 00:19:06;;;;;;;8.03;2.87;;;;;;;;;;5033899;28;20425;-48
2022/02/08 00:21:32;;;;;;;13.02;2.70;;;;;;;;;;5034093;28;20497;-48
2022/02/08 00:23:58;;;;;;;8.13;2.87;;;;;;;;;;5032974;28;20254;-49
2022/02/08 00:26:24;;;;;;;10.70;3.47;;;;;;;;;;5033992;28;21198;-47
2022/02/08 00:28:50;;;;;;;12.50;3.70;;;;;;;;;;5033825;28;20430;-47
2022/02/08 00:31:16;;;;;;;8.63;2.30;;;;;;;;;;5034574;28;20430;-49
2022/02/08 00:33:41;;;;;;;14.40;2.83;;;;;;;;;;5033960;28;20515;-48
2022/02/08 00:36:07;;;;;;;14.33;3.20;;;;;;;;;;5034032;28;20497;-49
2022/02/08 00:38:35;;;;;;;11.00;2.67;;;;;;;;;;5032821;28;20429;-48
2022/02/08 00:41:01;;;;;;;21.85;4.20;;;;;;;;;;5032989;28;20433;-49
2022/02/08 00:43:34;;;;;;;7.47;3.00;;;;;;;;;;5033725;28;20167;-48
2022/02/08 00:46:15;;;;;;;13.25;3.72;;;;;;;;;;5033617;28;20199;-48
2022/02/08 00:48:47;;;;;;;8.00;3.17;;;;;;;;;;5033564;28;20183;-48
2022/02/08 00:51:13;;;;;;;10.93;3.50;;;;;;;;;;5033464;28;20176;-48
2022/02/08 00:53:39;;;;;;;12.27;3.17;;;;;;;;;;5033459;28;20168;-48
2022/02/08 00:56:05;;;;;;;15.95;3.67;;;;;;;;;;5033455;28;20635;-48
2022/02/08 00:58:31;;;;;;;10.93;3.27;;;;;;;;;;5033316;28;20190;-48
2022/02/08 01:00:58;;;;;;;10.40;3.27;;;;;;;;;;5031989;28;20457;-48
2022/02/08 01:03:24;;;;;;;16.20;4.57;;;;;;;;;;5033216;28;20411;-49
2022/02/08 01:05:56;;;;;;;8.30;3.33;;;;;;;;;;5033180;28;20689;-48
2022/02/08 01:08:28;;;;;;;13.43;3.85;;;;;;;;;;5033221;28;20199;-48
2022/02/08 01:10:54;;;;;;;5.95;3.00;;;;;;;;;;5032990;28;20247;-48
2022/02/08 01:13:20;;;;;;;14.50;4.00;;;;;;;;;;5033095;28;20258;-49
2022/02/08 01:15:46;;;;;;;10.50;3.95;;;;;;;;;;5033034;28;20456;-49
2022/02/08 01:18:12;;;;;;;7.47;2.93;;;;;;;;;;5032992;28;20171;-48
2022/02/08 01:20:39;;;;;;;10.87;3.60;;;;;;;;;;5032644;28;20428;-48
2022/02/08 01:23:07;;;;;;;8.13;3.38;;;;;;;;;;5032127;28;20414;-48
2022/02/08 01:25:39;;;;;;;10.10;3.05;;;;;;;;;;5031927;28;20663;-48
2022/02/08 01:28:53;;;;;;;16.88;3.92;;;;;;;;;;5032936;28;20168;-48
2022/02/08 01:30:59;;;;;;;10.25;3.90;;;;;;;;;;5024275;28;20283;-48
2022/02/08 01:38:51;;;;;;;17.13;4.15;;;;;;;;;;5032861;28;20245;-48
2022/02/08 01:44:09;;;;;;;8.10;3.60;;;;;;;;;;5032695;28;20234;-49
2022/02/08 01:49:31;;;;;;;11.23;3.80;;;;;;;;;;5032233;28;20242;-49
2022/02/08 01:51:58;;;;;;;14.07;4.32;;;;;;;;;;5032489;28;20456;-48
2022/02/08 01:54:24;;;;;;;12.50;4.22;;;;;;;;;;5032472;28;20175;-48
2022/02/08 01:56:50;;;;;;;8.48;3.30;;;;;;;;;;5030663;28;20173;-48
2022/02/08 01:59:17;;;;;;;12.77;4.40;;;;;;;;;;5032315;28;20192;-48
2022/02/08 02:01:43;;;;;;;19.73;5.13;;;;;;;;;;5032200;28;20160;-48
2022/02/08 02:04:09;;;;;;;12.40;4.80;;;;;;;;;;5032334;28;20538;-48
2022/02/08 02:06:35;;;;;;;18.97;4.60;;;;;;;;;;5032083;28;20458;-48
2022/02/08 02:09:02;;;;;;;11.77;4.22;;;;;;;;;;5031379;28;20414;-49
2022/02/08 02:11:28;;;;;;;13.93;4.43;;;;;;;;;;5031989;28;20167;-48
2022/02/08 02:13:56;;;;;;;13.23;4.80;;;;;;;;;;5031926;28;20670;-48
2022/02/08 02:19:28;;;;;;;20.25;5.28;;;;;;;;;;5031786;28;20259;-48
2022/02/08 02:21:54;;;;;;;12.32;4.78;;;;;;;;;;5031825;28;20163;-48
2022/02/08 02:24:21;;;;;;;13.52;4.50;;;;;;;;;;5031829;28;20749;-48
2022/02/08 02:26:47;;;;;;;6.93;4.25;;;;;;;;;;5030900;28;20222;-48
2022/02/08 02:29:14;;;;;;;8.30;3.85;;;;;;;;;;5031283;28;20199;-48
2022/02/08 02:31:41;;;;;;;5.13;3.63;;;;;;;;;;5031684;28;20183;-48
2022/02/08 02:34:07;;;;;;;11.23;4.20;;;;;;;;;;5030851;28;20754;-48
2022/02/08 02:36:33;;;;;;;7.83;5.77;;;;;;;;;;5031567;28;20167;-48
2022/02/08 02:38:59;;;;;;;13.80;5.03;;;;;;;;;;5031241;28;20828;-48
2022/02/08 02:41:25;;;;;;;8.95;5.13;;;;;;;;;;5030468;28;20926;-48
2022/02/08 02:43:51;;;;;;;7.65;4.35;;;;;;;;;;5031351;28;20175;-48
2022/02/08 02:46:17;;;;;;;4.95;4.35;;;;;;;;;;5031294;28;20203;-48
2022/02/08 02:48:43;;;;;;;8.05;4.50;;;;;;;;;;5031208;28;20188;-48
2022/02/08 02:51:13;;;;;;;7.20;5.37;;;;;;;;;;5031191;28;20166;-48
2022/02/08 02:53:39;;;;;;;9.18;5.57;;;;;;;;;;5031269;28;20903;-48
2022/02/08 02:56:05;;;;;;;14.67;5.13;;;;;;;;;;5031230;28;20172;-48
2022/02/08 02:58:33;;;;;;;11.35;5.72;;;;;;;;;;5031125;28;20402;-48
2022/02/08 03:04:10;;;;;;;7.35;5.45;;;;;;;;;;5030418;28;20238;-48
2022/02/08 03:20:08;;;;;;;5.70;4.55;;;;;;;;;;5031147;28;20242;-48
2022/02/08 03:22:34;;;;;;;5.22;4.47;;;;;;;;;;5031256;28;20318;-48
2022/02/08 03:25:00;;;;;;;11.27;5.57;;;;;;;;;;5031163;28;20195;-48
2022/02/08 03:27:26;;;;;;;8.43;4.73;;;;;;;;;;5030283;28;20179;-48
2022/02/08 03:29:52;;;;;;;12.67;5.10;;;;;;;;;;5030610;28;20445;-48
2022/02/08 03:32:19;;;;;;;5.60;4.63;;;;;;;;;;5030813;28;20399;-48
2022/02/08 03:34:45;;;;;;;14.55;5.22;;;;;;;;;;5030873;28;20398;-48
2022/02/08 03:37:12;;;;;;;6.93;5.20;;;;;;;;;;5030837;28;20172;-48
2022/02/08 03:39:42;;;;;;;9.38;5.80;;;;;;;;;;5030561;28;20593;-48
2022/02/08 03:42:18;;;;;;;9.95;5.43;;;;;;;;;;5030735;28;20171;-48
2022/02/08 03:44:47;;;;;;;12.07;6.28;;;;;;;;;;5030746;28;20674;-48
2022/02/08 03:47:13;;;;;;;8.55;6.47;;;;;;;;;;5033680;28;20167;-48
2022/02/08 03:49:40;;;;;;;11.00;5.95;;;;;;;;;;5033768;28;20206;-48
2022/02/08 03:52:06;;;;;;;11.48;5.97;;;;;;;;;;5033400;28;20180;-49
2022/02/08 03:54:36;;;;;;;9.13;6.22;;;;;;;;;;5034586;28;20176;-49
2022/02/08 03:57:04;;;;;;;8.15;6.05;;;;;;;;;;5034513;28;20218;-48
2022/02/08 03:59:30;;;;;;;13.35;5.85;;;;;;;;;;5034258;28;20798;-48
2022/02/08 04:04:34;;;;;;;10.70;6.32;;;;;;;;;;5034533;28;20178;-48
2022/02/08 04:07:08;;;;;;;8.00;6.20;;;;;;;;;;5034390;28;20211;-48
2022/02/08 04:09:34;;;;;;;8.40;6.55;;;;;;;;;;5034095;28;20184;-49
2022/02/08 04:12:08;;;;;;;12.87;7.83;;;;;;;;;;5034108;28;20167;-48
2022/02/08 04:17:16;;;;;;;11.60;8.00;;;;;;;;;;5034424;28;20302;-48
2022/02/08 04:36:59;;;;;;;11.93;8.02;;;;;;;;;;5034076;28;20179;-48
2022/02/08 04:41:44;;;;;;;11.60;8.27;;;;;;;;;;5033780;28;20171;-48
2022/02/08 04:46:58;;;;;;;14.07;9.02;;;;;;;;;;5033819;28;20989;-48
2022/02/08 04:49:24;;;;;;;12.60;8.70;;;;;;;;;;5033492;28;20666;-49
2022/02/08 04:51:55;;;;;;;14.17;8.70;;;;;;;;;;5032658;28;20179;-49
2022/02/08 04:54:35;;;;;;;18.73;8.90;;;;;;;;;;5033647;28;20407;-48
2022/02/08 04:57:13;;;;;;;10.03;8.53;;;;;;;;;;5033049;28;20380;-48
2022/02/08 05:00:08;;;;;;;16.90;8.10;;;;;;;;;;5033279;28;20952;-48
2022/02/08 05:27:13;;;;;;;15.23;9.57;;;;;;;;;;5013093;28;20514;-48
2022/02/08 05:35:25;;;;;;;25.13;12.23;;;;;;;;;;5013046;28;20397;-48
2022/02/08 05:45:36;;;;;;;18.50;10.60;;;;;;;;;;5032465;28;20451;-49
2022/02/08 05:48:07;;;;;;;17.85;10.27;;;;;;;;;;5032838;28;20794;-48
2022/02/08 05:50:41;;;;;;;22.30;10.97;;;;;;;;;;5032156;28;20201;-48
2022/02/08 05:53:25;;;;;;;19.90;10.73;;;;;;;;;;5032398;28;20395;-48
2022/02/08 05:55:51;;;;;;;14.87;10.53;;;;;;;;;;5032356;28;20431;-48
2022/02/08 05:58:17;;;;;;;13.73;10.17;;;;;;;;;;5032238;28;20448;-49
2022/02/08 06:00:43;;;;;;;17.83;10.00;;;;;;;;;;5031971;28;20416;-49
2022/02/08 06:03:09;;;;;;;16.73;9.00;;;;;;;;;;5032192;28;20469;-49
2022/02/08 06:05:35;;;;;;;14.13;9.87;;;;;;;;;;5032110;28;20460;-48
2022/02/08 06:08:01;;;;;;;12.43;8.20;;;;;;;;;;5032091;28;20409;-48
2022/02/08 06:10:28;;;;;;;15.73;9.93;;;;;;;;;;5031570;28;20191;-49
2022/02/08 06:12:56;;;;;;;11.27;8.70;;;;;;;;;;5031099;28;20424;-49
2022/02/08 06:15:24;;;;;;;11.30;8.47;;;;;;;;;;5031966;28;20407;-49
2022/02/08 06:17:51;;;;;;;18.30;10.30;;;;;;;;;;5032075;28;20412;-48
2022/02/08 06:20:18;;;;;;;12.40;8.70;;;;;;;;;;5014279;28;20821;-49
2022/02/08 06:22:44;;;;;;;12.50;7.63;;;;;;;;;;5032093;28;20400;-49
2022/02/08 06:25:15;;;;;;;12.47;8.17;;;;;;;;;;5032117;28;20609;-49
2022/02/08 06:27:41;;;;;;;11.37;8.60;;;;;;;;;;5031966;28;20925;-48
2022/02/08 06:30:08;;;;;;;9.27;7.37;;;;;;;;;;5031459;28;21193;-48
2022/02/08 06:32:35;;;;;;;8.20;7.03;;;;;;;;;;5033143;28;20772;-49
2022/02/08 06:35:06;;;;;;;11.57;8.60;;;;;;;;;;5032519;28;20431;-49
2022/02/08 06:37:35;;;;;;;12.73;7.87;;;;;;;;;;5032845;28;20409;-49
2022/02/08 06:40:02;;;;;;;11.93;8.53;;;;;;;;;;5032553;28;20431;-49
2022/02/08 06:42:28;;;;;;;13.93;8.67;;;;;;;;;;5031450;28;20500;-49
2022/02/08 06:44:54;;;;;;;9.53;8.23;;;;;;;;;;5032401;28;20447;-50
2022/02/08 06:47:20;;;;;;;8.97;7.30;;;;;;;;;;5032254;28;20400;-49
2022/02/08 06:49:46;;;;;;;10.83;7.30;;;;;;;;;;5032264;28;20425;-50
2022/02/08 06:52:12;;;;;;;14.63;8.80;;;;;;;;;;5032453;28;20429;-49
2022/02/08 06:54:38;;;;;;;8.40;6.57;;;;;;;;;;5032391;28;20405;-49
2022/02/08 06:57:05;;;;;;;10.50;7.47;;;;;;;;;;5032132;28;20407;-48
2022/02/08 06:59:36;;;;;;;9.70;7.50;;;;;;;;;;5032255;28;21023;-49
2022/02/08 07:02:03;;;;;;;9.37;7.10;;;;;;;;;;5032186;28;20404;-48
2022/02/08 07:04:29;;;;;;;9.27;7.07;;;;;;;;;;5032057;28;20906;-48
2022/02/08 07:06:54;;;;;;;12.23;8.00;;;;;;;;;;5032245;28;20482;-48
2022/02/08 07:09:20;;;;;;;8.10;7.03;;;;;;;;;;5031835;28;20463;-50
2022/02/08 07:11:48;;;;;;;8.17;7.30;;;;;;;;;;5032147;28;20437;-50
2022/02/08 07:14:14;;;;;;;9.87;6.90;;;;;;;;;;5031047;28;20431;-50
2022/02/08 07:16:40;;;;;;;8.20;7.17;;;;;;;;;;5032063;28;20895;-49
2022/02/08 07:19:06;;;;;;;13.60;7.97;;;;;;;;;;5032072;28;20431;-49
2022/02/08 07:21:33;;;;;;;10.20;7.27;;;;;;;;;;5031452;28;20470;-49
2022/02/08 07:23:58;;;;;;;9.53;7.10;;;;;;;;;;5032194;28;20482;-51
2022/02/08 07:26:24;;;;;;;9.43;7.87;;;;;;;;;;5032546;28;21273;-49
2022/02/08 07:28:51;;;;;;;9.23;6.97;;;;;;;;;;5032142;28;20450;-48
2022/02/08 07:31:23;;;;;;;8.80;6.97;;;;;;;;;;5032364;28;20443;-48
2022/02/08 07:34:01;;;;;;;8.37;7.50;;;;;;;;;;5032057;28;21200;-49
2022/02/08 07:38:56;;;;;;;9.03;8.10;;;;;;;;;;5032211;28;20855;-50
2022/02/08 07:41:42;;;;;;;9.77;7.13;;;;;;;;;;5032535;28;20921;-49
2022/02/08 07:44:09;;;;;;;8.80;7.90;;;;;;;;;;5031347;28;20437;-48
2022/02/08 07:46:35;;;;;;;13.10;8.63;;;;;;;;;;5032201;28;20456;-49
2022/02/08 07:49:03;;;;;;;13.17;7.53;;;;;;;;;;5032178;28;20429;-50
2022/02/08 07:51:29;;;;;;;8.93;7.70;;;;;;;;;;5032058;28;20906;-49
2022/02/08 07:53:55;;;;;;;10.43;7.60;;;;;;;;;;5031897;28;20397;-50
2022/02/08 07:56:21;;;;;;;10.53;8.53;;;;;;;;;;5031242;28;20520;-50
2022/02/08 07:58:47;;;;;;;8.90;7.03;;;;;;;;;;5031636;28;20503;-49
2022/02/08 08:01:13;;;;;;;12.70;9.20;;;;;;;;;;5031556;28;20408;-48
2022/02/08 08:03:42;;;;;;;11.87;7.83;;;;;;;;;;5031652;28;20496;-49
2022/02/08 08:06:09;;;;;;;11.90;8.73;;;;;;;;;;5031582;28;20457;-50
2022/02/08 08:08:35;;;;;;;17.17;8.83;;;;;;;;;;5031729;28;20942;-51
2022/02/08 08:11:03;;;;;;;8.97;7.90;;;;;;;;;;5031422;28;20451;-51
2022/02/08 08:13:30;;;;;;;10.50;8.10;;;;;;;;;;5031333;28;20477;-49
2022/02/08 08:16:11;;;;;;;11.60;7.97;;;;;;;;;;5030989;28;20428;-51
2022/02/08 08:18:55;;;;;;;8.63;7.03;;;;;;;;;;5031578;28;20428;-49
2022/02/08 08:21:21;;;;;;;10.80;8.57;;;;;;;;;;5031279;28;20412;-50
2022/02/08 08:23:47;;;;;;;12.20;8.00;;;;;;;;;;5031032;28;20531;-51
2022/02/08 08:26:13;;;;;;;12.97;8.70;;;;;;;;;;5031410;28;20460;-48
2022/02/08 08:28:39;;;;;;;13.80;8.80;;;;;;;;;;5031757;28;20431;-49
2022/02/08 08:31:05;;;;;;;12.47;8.60;;;;;;;;;;5031409;28;20408;-50
2022/02/08 08:33:31;;;;;;;18.50;8.70;;;;;;;;;;5035081;28;20477;-49
2022/02/08 08:35:58;;;;;;;13.70;8.93;;;;;;;;;;5034975;28;20948;-51
2022/02/08 08:38:26;;;;;;;11.83;8.63;;;;;;;;;;5034861;28;20444;-50
2022/02/08 08:41:01;;;;;;;11.63;8.27;;;;;;;;;;5035406;28;20508;-49
2022/02/08 08:54:00;;;;;;;12.33;9.17;;;;;;;;;;5036041;28;20433;-48
2022/02/08 08:56:26;;;;;;;21.53;10.40;;;;;;;;;;5035367;28;21008;-49
2022/02/08 08:58:52;;;;;;;12.00;10.00;;;;;;;;;;5035891;28;21124;-49
2022/02/08 09:01:18;;;;;;;12.93;9.00;;;;;;;;;;5036146;28;20462;-51
2022/02/08 09:03:47;;;;;;;15.33;8.60;;;;;;;;;;5035898;28;20402;-49
2022/02/08 09:06:13;;;;;;;14.43;9.53;;;;;;;;;;5035247;28;20817;-49
2022/02/08 09:08:41;;;;;;;14.00;9.30;;;;;;;;;;5034770;28;20535;-50
2022/02/08 09:11:17;;;;;;;21.87;10.27;;;;;;;;;;5035244;28;20402;-51
2022/02/08 09:13:54;;;;;;;15.03;10.07;;;;;;;;;;5035447;28;20912;-49
2022/02/08 09:16:31;;;;;;;15.90;9.70;;;;;;;;;;5035491;28;20886;-48
2022/02/08 09:29:55;;;;;;;12.23;9.40;;;;;;;;;;5034561;28;20819;-48
2022/02/08 09:32:44;;;;;;;15.60;10.10;;;;;;;;;;5032029;28;20468;-50
2022/02/08 09:35:08;;;;;;;12.77;10.30;;;;;;;;;;5027740;28;20413;-49
2022/02/08 09:37:34;;;;;;;14.37;8.80;;;;;;;;;;5033843;28;20426;-49
2022/02/08 09:40:01;;;;;;;10.57;9.03;;;;;;;;;;5034323;28;20422;-48
2022/02/08 09:42:27;;;;;;;15.23;9.10;;;;;;;;;;5034542;28;20454;-48
2022/02/08 09:44:56;;;;;;;13.30;8.90;;;;;;;;;;5033710;28;20814;-48
2022/02/08 09:47:39;;;;;;;10.00;8.37;;;;;;;;;;5034899;28;20548;-49
2022/02/08 09:50:16;;;;;;;12.10;6.90;;;;;;;;;;5034443;28;20418;-50
2022/02/08 09:52:47;;;;;;;11.80;8.00;;;;;;;;;;5034819;28;20898;-49
2022/02/08 09:55:14;;;;;;;12.70;7.87;;;;;;;;;;5034831;28;20410;-50
2022/02/08 09:57:41;;;;;;;13.20;8.67;;;;;;;;;;5034325;28;20530;-49
2022/02/08 10:00:07;;;;;;;10.10;7.90;;;;;;;;;;5034616;28;20436;-51
2022/02/08 10:02:33;;;;;;;10.43;7.27;;;;;;;;;;5034242;28;20406;-50
2022/02/08 10:05:00;;;;;;;13.13;9.13;;;;;;;;;;5034098;28;20415;-49
2022/02/08 10:07:27;;;;;;;13.90;8.23;;;;;;;;;;5033777;28;20494;-50
2022/02/08 10:09:53;;;;;;;12.40;7.43;;;;;;;;;;5034104;28;20418;-50
2022/02/08 10:12:22;;;;;;;9.50;7.60;;;;;;;;;;5033801;28;20754;-50
2022/02/08 10:18:55;;;;;;;12.30;7.80;;;;;;;;;;5032572;28;20905;-49
2022/02/08 10:23:07;;;;;;;9.50;8.20;;;;;;;;;;5033740;28;20963;-49
2022/02/08 10:38:41;;;;;;;8.20;5.87;;;;;;;;;;5013833;28;20394;-51
2022/02/08 10:41:14;;;;;;;8.43;5.77;;;;;;;;;;5016363;28;20414;-49
2022/02/08 10:43:42;;;;;;;8.43;5.80;;;;;;;;;;5033274;28;20760;-48
2022/02/08 10:46:18;;;;;;;9.00;6.30;;;;;;;;;;5032008;28;20516;-51
2022/02/08 10:48:44;;;;;;;8.87;5.47;;;;;;;;;;5032720;28;20809;-50
2022/02/08 10:51:12;;;;;;;9.07;5.27;;;;;;;;;;5032092;28;20446;-48
2022/02/08 10:53:50;;;;;;;10.10;5.43;;;;;;;;;;5014180;28;20410;-50
2022/02/08 10:56:16;;;;;;;7.80;5.27;;;;;;;;;;5031526;28;20433;-49
2022/02/08 10:58:52;;;;;;;6.17;5.17;;;;;;;;;;5031696;28;20946;-50
2022/02/08 11:01:23;;;;;;;10.43;5.27;;;;;;;;;;5031731;28;20460;-48
2022/02/08 11:06:35;;;;;;;6.53;4.73;;;;;;;;;;5031540;28;21036;-50
2022/02/08 11:14:29;;;;;;;6.00;4.70;;;;;;;;;;5000474;28;20496;-50
2022/02/08 11:23:24;;;;;;;5.97;4.73;;;;;;;;;;5031488;28;20439;-49
2022/02/08 11:25:23;;;;;;;12.57;5.00;;;;;;;;;;5017689;28;20549;-50
2022/02/08 11:27:58;;;;;;;6.57;5.07;;;;;;;;;;5031315;28;20418;-49
2022/02/08 11:30:30;;;;;;;11.73;4.90;;;;;;;;;;5030927;28;20442;-48
2022/02/08 11:33:14;;;;;;;9.70;4.57;;;;;;;;;;5031373;28;20479;-51
2022/02/08 11:51:44;;;;;;;7.37;4.70;;;;;;;;;;5031571;28;20409;-49
2022/02/08 12:07:38;;;;;;;7.70;3.93;;;;;;;;;;5033418;28;20422;-47
2022/02/08 12:10:18;;;;;;;5.13;4.40;;;;;;;;;;5034915;28;20418;-48
2022/02/08 12:27:11;;;;;;;11.20;3.93;;;;;;;;;;5015217;28;20930;-51
2022/02/08 13:19:42;;;;;;;4.43;2.87;;;;;;;;;;5033812;28;20952;-47
2022/02/08 14:11:01;;;;;;;5.77;2.10;;;;;;;;;;5031903;28;20480;-50
2022/02/08 14:31:46;;;;;;;4.57;2.00;;;;;;;;;;5032159;28;20751;-49
2022/02/08 14:59:53;;;;;;;2.87;2.00;;;;;;;;;;5032663;28;20434;-49
2022/02/08 15:09:34;;;;;;;3.07;2.10;;;;;;;;;;5032406;28;20430;-50
2022/02/08 15:14:38;;;;;;;3.57;2.10;;;;;;;;;;5032807;28;20546;-50
2022/02/08 15:17:04;;;;;;;4.97;2.00;;;;;;;;;;5031951;28;20404;-49
2022/02/08 15:19:30;;;;;;;3.03;1.80;;;;;;;;;;5031946;28;20438;-50
2022/02/08 15:21:58;;;;;;;6.17;2.03;;;;;;;;;;5033308;28;20436;-49
2022/02/08 15:24:24;;;;;;;6.10;2.57;;;;;;;;;;5032892;28;20403;-51
2022/02/08 15:26:53;;;;;;;9.53;2.40;;;;;;;;;;5032683;28;20976;-49
2022/02/08 15:29:19;;;;;;;6.50;2.33;;;;;;;;;;5032704;28;20448;-49
2022/02/08 15:31:45;;;;;;;2.33;2.13;;;;;;;;;;5032707;28;20848;-50
2022/02/08 15:34:11;;;;;;;5.10;2.03;;;;;;;;;;5032528;28;20756;-49
2022/02/08 15:36:38;;;;;;;5.13;2.10;;;;;;;;;;5031538;28;20403;-48
2022/02/08 15:39:08;;;;;;;4.13;2.30;;;;;;;;;;5031535;28;20426;-49
2022/02/08 15:41:36;;;;;;;2.50;2.17;;;;;;;;;;5032160;28;20914;-47
2022/02/08 15:44:03;;;;;;;4.70;2.13;;;;;;;;;;5035956;28;20410;-49
2022/02/08 15:46:32;;;;;;;2.60;2.40;;;;;;;;;;5035120;28;20449;-50
2022/02/08 15:48:59;;;;;;;4.50;2.43;;;;;;;;;;5035486;28;21093;-50
2022/02/08 15:51:37;;;;;;;6.83;2.30;;;;;;;;;;5036447;28;20401;-49
2022/02/08 16:17:33;;;;;;;5.33;2.07;;;;;;;;;;5035003;28;20859;-49
2022/02/08 16:25:15;;;;;;;3.40;2.10;;;;;;;;;;5035375;28;20406;-50
2022/02/08 16:28:12;;;;;;;3.73;1.97;;;;;;;;;;5035267;28;20405;-51
2022/02/08 16:52:52;;;;;;;2.07;1.90;;;;;;;;;;5034583;28;20901;-50
2022/02/08 16:56:05;;;;;;;6.60;2.33;;;;;;;;;;5033942;28;20409;-50
2022/02/08 17:00:50;;;;;;;4.17;2.40;;;;;;;;;;5034426;28;20414;-49
2022/02/08 17:03:22;;;;;;;3.80;1.80;;;;;;;;;;5034790;28;20493;-49
2022/02/08 17:05:48;;;;;;;3.37;2.03;;;;;;;;;;5034536;28;20454;-50
2022/02/08 17:08:15;;;;;;;4.03;2.60;;;;;;;;;;5016519;28;20555;-50
2022/02/08 17:10:46;;;;;;;2.77;1.90;;;;;;;;;;5033894;28;20491;-50
2022/02/08 17:13:40;;;;;;;8.30;2.40;;;;;;;;;;5034194;28;20507;-51
2022/02/08 17:47:56;;;;;;;2.80;2.60;;;;;;;;;;5032408;28;20435;-49
2022/02/08 17:50:22;;;;;;;5.63;3.07;;;;;;;;;;5033051;28;20441;-50
2022/02/08 17:52:48;;;;;;;4.37;2.90;;;;;;;;;;5032997;28;20883;-48
2022/02/08 17:55:15;;;;;;;4.77;3.33;;;;;;;;;;5033431;28;20403;-49
2022/02/08 17:57:41;;;;;;;2.87;2.67;;;;;;;;;;5033455;28;20406;-51
2022/02/08 18:00:08;;;;;;;6.40;2.90;;;;;;;;;;5033168;28;20783;-50
2022/02/08 18:02:34;;;;;;;7.77;3.13;;;;;;;;;;5033371;28;20823;-48
2022/02/08 18:05:02;;;;;;;4.10;3.40;;;;;;;;;;5032795;28;20398;-51
2022/02/08 18:07:29;;;;;;;3.90;3.60;;;;;;;;;;5032926;28;20878;-49
2022/02/08 18:09:55;;;;;;;5.23;3.80;;;;;;;;;;5032398;28;20440;-49
2022/02/08 18:12:25;;;;;;;5.80;3.80;;;;;;;;;;5032874;28;20413;-50
2022/02/08 18:14:57;;;;;;;4.83;4.43;;;;;;;;;;5032877;28;20437;-50
2022/02/08 18:17:34;;;;;;;5.57;4.40;;;;;;;;;;5032930;28;20406;-49
2022/02/08 18:20:21;;;;;;;4.17;3.77;;;;;;;;;;5032379;28;20529;-48
2022/02/08 18:22:55;;;;;;;4.07;3.77;;;;;;;;;;5032833;28;20395;-50
2022/02/08 19:23:35;;;;;;;4.07;3.40;;;;;;;;;;5031044;28;20441;-48
2022/02/08 19:26:02;;;;;;;4.40;4.00;;;;;;;;;;5030764;28;20962;-47
2022/02/08 19:28:28;;;;;;;5.87;4.30;;;;;;;;;;5030760;28;20460;-49
2022/02/08 19:30:54;;;;;;;4.43;4.03;;;;;;;;;;5030760;28;20411;-49
2022/02/08 19:33:26;;;;;;;5.63;3.80;;;;;;;;;;5030938;28;20417;-48
2022/02/08 19:35:52;;;;;;;4.60;4.13;;;;;;;;;;5030881;28;20997;-49
2022/02/08 19:38:19;;;;;;;5.80;4.27;;;;;;;;;;5030640;28;20398;-48
2022/02/08 19:40:45;;;;;;;4.93;4.03;;;;;;;;;;5030709;28;20403;-48
2022/02/08 19:43:11;;;;;;;5.37;4.87;;;;;;;;;;5030830;28;20414;-48
2022/02/08 19:45:43;;;;;;;6.40;4.73;;;;;;;;;;5030719;28;20816;-48
2022/02/08 19:48:09;;;;;;;13.30;4.53;;;;;;;;;;5029846;28;20429;-48
2022/02/08 19:50:36;;;;;;;6.20;4.60;;;;;;;;;;5030434;28;20969;-48
2022/02/08 19:53:06;;;;;;;5.00;4.50;;;;;;;;;;5030726;28;20405;-48
2022/02/08 19:56:06;;;;;;;9.07;4.20;;;;;;;;;;5030771;28;20828;-48
2022/02/08 19:58:22;;;;;;;7.10;4.30;;;;;;;;;;5030234;28;20488;-48
2022/02/08 20:01:00;;;;;;;4.33;3.93;;;;;;;;;;5030453;28;20477;-48
2022/02/08 20:03:32;;;;;;;5.10;3.90;;;;;;;;;;5030743;28;20398;-48
2022/02/08 20:05:58;;;;;;;3.67;3.30;;;;;;;;;;5030622;28;20441;-48
2022/02/08 20:08:26;;;;;;;4.53;3.30;;;;;;;;;;5030664;28;20450;-48
2022/02/08 20:10:53;;;;;;;3.53;3.23;;;;;;;;;;5030490;28;20401;-49
2022/02/08 20:13:22;;;;;;;5.50;3.60;;;;;;;;;;5030827;28;20894;-48
2022/02/08 20:15:48;;;;;;;5.40;3.27;;;;;;;;;;5030763;28;20773;-48
2022/02/08 20:18:15;;;;;;;5.03;4.03;;;;;;;;;;5029696;28;20910;-48
2022/02/08 20:20:41;;;;;;;6.50;4.60;;;;;;;;;;5030281;28;20423;-49
2022/02/08 20:23:07;;;;;;;6.03;3.97;;;;;;;;;;5030511;28;20801;-48
2022/02/08 20:25:38;;;;;;;7.07;4.60;;;;;;;;;;5030361;28;20458;-48
2022/02/08 20:28:12;;;;;;;13.27;4.80;;;;;;;;;;5031700;28;20448;-49
2022/02/08 20:30:39;;;;;;;5.10;3.90;;;;;;;;;;5033817;28;20426;-49
2022/02/08 20:33:06;;;;;;;7.67;4.40;;;;;;;;;;5033959;28;20485;-48
2022/02/08 20:35:32;;;;;;;6.40;3.90;;;;;;;;;;5033981;28;20401;-48
2022/02/08 20:37:58;;;;;;;6.23;4.67;;;;;;;;;;5033839;28;20394;-48
2022/02/08 20:40:24;;;;;;;5.20;3.90;;;;;;;;;;5033609;28;20422;-49
2022/02/08 20:42:54;;;;;;;4.20;3.80;;;;;;;;;;5033748;28;20402;-48
2022/02/08 20:45:20;;;;;;;5.90;4.30;;;;;;;;;;5033775;28;20884;-48
2022/02/08 20:47:47;;;;;;;3.73;3.43;;;;;;;;;;5032851;28;20462;-48
2022/02/08 20:50:16;;;;;;;3.63;3.33;;;;;;;;;;5033314;28;20426;-48
2022/02/08 20:52:56;;;;;;;3.97;3.67;;;;;;;;;;5033666;28;20763;-49
2022/02/08 20:55:25;;;;;;;4.40;4.00;;;;;;;;;;5031701;28;20418;-49
2022/02/08 20:58:02;;;;;;;5.50;3.60;;;;;;;;;;5013819;28;20446;-48
2022/02/08 21:00:28;;;;;;;9.43;3.57;;;;;;;;;;5013182;28;20514;-48
2022/02/08 21:03:02;;;;;;;4.90;3.33;;;;;;;;;;5016570;28;20436;-48
2022/02/08 21:05:32;;;;;;;4.03;3.40;;;;;;;;;;5033353;28;20981;-49
2022/02/08 21:07:58;;;;;;;9.50;3.73;;;;;;;;;;5033093;28;20402;-49
2022/02/08 21:10:25;;;;;;;5.70;2.80;;;;;;;;;;5032604;28;20936;-49
2022/02/08 21:13:12;;;;;;;12.30;3.10;;;;;;;;;;5033028;28;20409;-49
2022/02/08 21:15:39;;;;;;;4.10;2.90;;;;;;;;;;5033199;28;20420;-49
2022/02/08 21:18:05;;;;;;;5.93;3.30;;;;;;;;;;5033185;28;20409;-48
2022/02/08 21:20:31;;;;;;;4.73;3.00;;;;;;;;;;5032804;28;20422;-48
2022/02/08 21:22:57;;;;;;;5.23;3.27;;;;;;;;;;5032680;28;20407;-49
2022/02/08 21:25:23;;;;;;;3.00;2.80;;;;;;;;;;5032503;28;20464;-50
2022/02/08 21:27:57;;;;;;;3.17;2.87;;;;;;;;;;5033108;28;20430;-48
2022/02/08 21:33:12;;;;;;;9.70;2.83;;;;;;;;;;5032987;28;20464;-48
2022/02/08 21:45:30;;;;;;;5.77;3.30;;;;;;;;;;4971327;28;20479;-49
2022/02/08 21:47:39;;;;;;;4.47;3.17;;;;;;;;;;5018225;28;20472;-49
2022/02/08 21:49:56;;;;;;;3.23;3.00;;;;;;;;;;5012339;28;20445;-49
2022/02/08 21:52:31;;;;;;;4.50;2.90;;;;;;;;;;5012416;28;20411;-48
2022/02/08 21:54:58;;;;;;;2.87;2.57;;;;;;;;;;5012757;28;20900;-48
2022/02/08 21:57:41;;;;;;;2.87;2.67;;;;;;;;;;5029920;28;21015;-49
2022/02/08 22:00:08;;;;;;;3.00;2.80;;;;;;;;;;5031540;28;20414;-48
2022/02/08 22:02:34;;;;;;;2.43;2.33;;;;;;;;;;5032212;28;20445;-48
2022/02/08 22:05:02;;;;;;;4.30;3.00;;;;;;;;;;5032385;28;20398;-49
2022/02/08 22:07:30;;;;;;;3.23;2.90;;;;;;;;;;5032177;28;20445;-48
2022/02/08 22:10:07;;;;;;;2.63;2.37;;;;;;;;;;5031929;28;20422;-49
2022/02/08 22:26:59;;;;;;;2.70;2.27;;;;;;;;;;4997987;28;20500;-48
2022/02/08 22:32:29;;;;;;;2.80;2.60;;;;;;;;;;5031795;28;20410;-48
2022/02/08 22:34:49;;;;;;;4.90;3.17;;;;;;;;;;5028024;28;20452;-48
2022/02/08 22:37:32;;;;;;;5.60;2.93;;;;;;;;;;5031722;28;20411;-48
2022/02/08 22:40:19;;;;;;;3.37;3.07;;;;;;;;;;5031537;28;20492;-49
2022/02/08 22:42:48;;;;;;;3.20;2.90;;;;;;;;;;5031361;28;20742;-49
2022/02/08 22:45:17;;;;;;;3.50;3.23;;;;;;;;;;5031511;28;20406;-50
2022/02/08 22:47:44;;;;;;;5.53;3.63;;;;;;;;;;5031554;28;20874;-49
2022/02/08 22:50:10;;;;;;;4.10;3.47;;;;;;;;;;5031252;28;20452;-48
2022/02/08 22:52:37;;;;;;;8.03;3.73;;;;;;;;;;5031121;28;20410;-48
2022/02/08 22:55:03;;;;;;;3.90;3.43;;;;;;;;;;5031402;28;20886;-49
2022/02/08 22:57:29;;;;;;;8.10;3.60;;;;;;;;;;5031325;28;20414;-48
2022/02/08 22:59:59;;;;;;;9.07;4.30;;;;;;;;;;5030051;28;20483;-49
2022/02/08 23:02:25;;;;;;;5.07;3.90;;;;;;;;;;5031234;28;20481;-48
2022/02/08 23:04:51;;;;;;;3.83;3.53;;;;;;;;;;5031265;28;20416;-49
2022/02/08 23:07:18;;;;;;;4.30;3.70;;;;;;;;;;5030935;28;20540;-48
2022/02/08 23:39:04;;;;;;;4.17;3.00;;;;;;;;;;5030728;28;20425;-48
2022/02/08 23:41:30;;;;;;;4.03;2.83;;;;;;;;;;5030896;28;20442;-49
2022/02/08 23:44:00;;;;;;;6.80;3.40;;;;;;;;;;5030843;28;20898;-49
2022/02/08 23:46:26;;;;;;;3.50;3.20;;;;;;;;;;5030760;28;20537;-50
2022/02/08 23:51:23;;;;;;;4.50;3.40;;;;;;;;;;5030775;28;20476;-48
2022/02/08 23:53:58;;;;;;;3.50;3.20;;;;;;;;;;5030832;28;20463;-50
2022/02/08 23:59:07;;;;;;;3.20;2.70;;;;;;;;;;5030843;28;20432;-48
